sensor_id;sensor_type;location;lat;lon;timestamp;temperature;humidity
1453;DHT22;720;47.738;7.998;2022-12-17T00:02:01;-4.40;94.50
1453;DHT22;720;47.738;7.998;2022-12-17T00:04:45;-4.50;94.30
1453;DHT22;720;47.738;7.998;2022-12-17T00:07:29;-4.50;94.50
1453;DHT22;720;47.738;7.998;2022-12-17T00:10:13;-4.50;94.70
1453;DHT22;720;47.738;7.998;2022-12-17T00:12:59;-4.30;96.30
1453;DHT22;720;47.738;7.998;2022-12-17T00:15:52;-4.30;94.60
1453;DHT22;720;47.738;7.998;2022-12-17T00:18:36;-4.40;94.50
1453;DHT22;720;47.738;7.998;2022-12-17T00:21:20;-4.50;94.60
1453;DHT22;720;47.738;7.998;2022-12-17T00:24:05;-4.60;94.60
1453;DHT22;720;47.738;7.998;2022-12-17T00:26:49;-4.60;94.70
1453;DHT22;720;47.738;7.998;2022-12-17T00:29:33;-4.60;94.80
1453;DHT22;720;47.738;7.998;2022-12-17T00:32:17;-4.50;94.80
1453;DHT22;720;47.738;7.998;2022-12-17T00:35:01;-4.50;94.70
1453;DHT22;720;47.738;7.998;2022-12-17T00:37:46;-4.50;94.60
1453;DHT22;720;47.738;7.998;2022-12-17T00:40:30;-4.50;94.60
1453;DHT22;720;47.738;7.998;2022-12-17T00:43:14;-4.50;94.60
1453;DHT22;720;47.738;7.998;2022-12-17T00:45:58;-4.60;94.50
1453;DHT22;720;47.738;7.998;2022-12-17T00:48:43;-4.60;94.50
1453;DHT22;720;47.738;7.998;2022-12-17T00:51:28;-4.60;94.50
1453;DHT22;720;47.738;7.998;2022-12-17T00:54:12;-4.60;94.60
1453;DHT22;720;47.738;7.998;2022-12-17T00:56:57;-4.60;94.50
1453;DHT22;720;47.738;7.998;2022-12-17T00:59:41;-4.60;94.70
1453;DHT22;720;47.738;7.998;2022-12-17T01:02:25;-4.60;94.80
1453;DHT22;720;47.738;7.998;2022-12-17T01:05:10;-4.50;94.70
1453;DHT22;720;47.738;7.998;2022-12-17T01:07:55;-4.30;99.90
1453;DHT22;720;47.738;7.998;2022-12-17T01:10:39;-4.30;94.50
1453;DHT22;720;47.738;7.998;2022-12-17T01:13:23;-4.40;94.40
1453;DHT22;720;47.738;7.998;2022-12-17T01:16:12;-4.50;94.50
1453;DHT22;720;47.738;7.998;2022-12-17T01:18:58;-4.60;94.70
1453;DHT22;720;47.738;7.998;2022-12-17T01:21:43;-4.40;94.90
1453;DHT22;720;47.738;7.998;2022-12-17T01:24:28;-4.30;94.80
1453;DHT22;720;47.738;7.998;2022-12-17T01:27:11;-4.40;94.80
1453;DHT22;720;47.738;7.998;2022-12-17T01:29:56;-4.40;94.70
1453;DHT22;720;47.738;7.998;2022-12-17T01:32:40;-4.50;94.40
1453;DHT22;720;47.738;7.998;2022-12-17T01:35:24;-4.60;94.50
1453;DHT22;720;47.738;7.998;2022-12-17T01:38:15;-4.60;99.90
1453;DHT22;720;47.738;7.998;2022-12-17T01:41:02;-4.70;94.20
1453;DHT22;720;47.738;7.998;2022-12-17T01:43:46;-4.70;94.40
1453;DHT22;720;47.738;7.998;2022-12-17T01:46:41;-4.70;94.60
1453;DHT22;720;47.738;7.998;2022-12-17T01:49:29;-4.60;94.40
1453;DHT22;720;47.738;7.998;2022-12-17T01:52:14;-4.70;94.30
1453;DHT22;720;47.738;7.998;2022-12-17T01:55:01;-4.70;94.40
1453;DHT22;720;47.738;7.998;2022-12-17T01:57:46;-4.70;94.40
1453;DHT22;720;47.738;7.998;2022-12-17T02:00:30;-4.70;94.50
1453;DHT22;720;47.738;7.998;2022-12-17T02:03:16;-4.80;94.40
1453;DHT22;720;47.738;7.998;2022-12-17T02:06:24;-4.80;94.40
1453;DHT22;720;47.738;7.998;2022-12-17T02:12:51;-4.80;94.30
1453;DHT22;720;47.738;7.998;2022-12-17T02:15:48;-4.90;94.10
1453;DHT22;720;47.738;7.998;2022-12-17T02:18:40;-4.90;94.70
1453;DHT22;720;47.738;7.998;2022-12-17T02:21:28;-4.90;94.50
1453;DHT22;720;47.738;7.998;2022-12-17T02:24:45;-4.80;94.60
1453;DHT22;720;47.738;7.998;2022-12-17T02:27:31;-4.80;94.40
1453;DHT22;720;47.738;7.998;2022-12-17T02:30:16;-4.90;94.40
1453;DHT22;720;47.738;7.998;2022-12-17T02:33:01;-4.90;94.40
1453;DHT22;720;47.738;7.998;2022-12-17T02:35:56;-4.90;94.30
1453;DHT22;720;47.738;7.998;2022-12-17T02:38:41;-4.80;94.70
1453;DHT22;720;47.738;7.998;2022-12-17T02:41:31;-4.70;94.90
1453;DHT22;720;47.738;7.998;2022-12-17T02:44:19;-4.60;95.00
1453;DHT22;720;47.738;7.998;2022-12-17T02:47:07;-4.60;95.00
1453;DHT22;720;47.738;7.998;2022-12-17T02:49:52;-4.60;95.10
1453;DHT22;720;47.738;7.998;2022-12-17T02:52:39;-4.50;95.20
1453;DHT22;720;47.738;7.998;2022-12-17T02:55:25;-4.50;95.10
1453;DHT22;720;47.738;7.998;2022-12-17T02:58:09;-4.70;99.90
1453;DHT22;720;47.738;7.998;2022-12-17T03:00:53;-4.60;94.90
1453;DHT22;720;47.738;7.998;2022-12-17T03:03:37;-4.60;95.20
1453;DHT22;720;47.738;7.998;2022-12-17T03:06:21;-4.60;95.30
1453;DHT22;720;47.738;7.998;2022-12-17T03:09:05;-4.50;95.30
1453;DHT22;720;47.738;7.998;2022-12-17T03:11:49;-4.60;95.20
1453;DHT22;720;47.738;7.998;2022-12-17T03:14:33;-4.60;95.20
1453;DHT22;720;47.738;7.998;2022-12-17T03:17:17;-4.50;99.90
1453;DHT22;720;47.738;7.998;2022-12-17T03:20:01;-4.50;95.30
1453;DHT22;720;47.738;7.998;2022-12-17T03:22:45;-4.40;95.00
1453;DHT22;720;47.738;7.998;2022-12-17T03:25:29;-4.60;94.70
1453;DHT22;720;47.738;7.998;2022-12-17T03:28:13;-4.70;94.70
1453;DHT22;720;47.738;7.998;2022-12-17T03:30:58;-4.70;94.70
1453;DHT22;720;47.738;7.998;2022-12-17T03:33:43;-4.60;94.60
1453;DHT22;720;47.738;7.998;2022-12-17T03:36:29;-4.60;94.50
1453;DHT22;720;47.738;7.998;2022-12-17T03:39:13;-4.70;94.40
1453;DHT22;720;47.738;7.998;2022-12-17T03:41:57;-4.70;94.40
1453;DHT22;720;47.738;7.998;2022-12-17T03:44:41;-4.70;94.40
1453;DHT22;720;47.738;7.998;2022-12-17T03:47:25;-4.80;94.20
1453;DHT22;720;47.738;7.998;2022-12-17T03:50:10;-4.90;94.30
1453;DHT22;720;47.738;7.998;2022-12-17T03:52:54;-4.80;94.70
1453;DHT22;720;47.738;7.998;2022-12-17T03:55:38;-4.70;95.00
1453;DHT22;720;47.738;7.998;2022-12-17T03:58:22;-4.60;95.00
1453;DHT22;720;47.738;7.998;2022-12-17T04:01:06;-4.50;94.70
1453;DHT22;720;47.738;7.998;2022-12-17T04:03:50;-4.50;94.60
1453;DHT22;720;47.738;7.998;2022-12-17T04:06:34;-4.50;94.50
1453;DHT22;720;47.738;7.998;2022-12-17T04:09:18;-4.60;94.50
1453;DHT22;720;47.738;7.998;2022-12-17T04:12:02;-4.70;94.50
1453;DHT22;720;47.738;7.998;2022-12-17T04:14:46;-4.50;94.60
1453;DHT22;720;47.738;7.998;2022-12-17T04:17:30;-4.80;94.40
1453;DHT22;720;47.738;7.998;2022-12-17T04:20:14;-4.80;94.40
1453;DHT22;720;47.738;7.998;2022-12-17T04:22:58;-4.80;94.50
1453;DHT22;720;47.738;7.998;2022-12-17T04:25:42;-4.70;94.30
1453;DHT22;720;47.738;7.998;2022-12-17T04:28:26;-4.80;94.20
1453;DHT22;720;47.738;7.998;2022-12-17T04:31:10;-4.80;94.20
1453;DHT22;720;47.738;7.998;2022-12-17T04:33:54;-4.90;94.20
1453;DHT22;720;47.738;7.998;2022-12-17T04:36:39;-4.90;94.30
1453;DHT22;720;47.738;7.998;2022-12-17T04:39:23;-4.90;94.40
1453;DHT22;720;47.738;7.998;2022-12-17T04:42:07;-4.80;94.60
1453;DHT22;720;47.738;7.998;2022-12-17T04:44:50;-4.80;94.50
1453;DHT22;720;47.738;7.998;2022-12-17T04:47:35;-4.80;94.40
1453;DHT22;720;47.738;7.998;2022-12-17T04:50:19;-4.80;94.50
1453;DHT22;720;47.738;7.998;2022-12-17T04:53:06;-4.80;94.40
1453;DHT22;720;47.738;7.998;2022-12-17T04:55:53;-4.70;94.40
1453;DHT22;720;47.738;7.998;2022-12-17T04:58:37;-4.70;94.50
1453;DHT22;720;47.738;7.998;2022-12-17T05:01:22;-4.80;94.50
1453;DHT22;720;47.738;7.998;2022-12-17T05:04:06;-4.80;94.70
1453;DHT22;720;47.738;7.998;2022-12-17T05:06:51;-4.80;94.60
1453;DHT22;720;47.738;7.998;2022-12-17T05:09:39;-4.80;94.10
1453;DHT22;720;47.738;7.998;2022-12-17T05:12:24;-4.90;94.00
1453;DHT22;720;47.738;7.998;2022-12-17T05:15:08;-5.00;93.80
1453;DHT22;720;47.738;7.998;2022-12-17T05:17:52;-5.20;99.90
1453;DHT22;720;47.738;7.998;2022-12-17T05:20:36;-5.20;94.10
1453;DHT22;720;47.738;7.998;2022-12-17T05:23:20;-5.10;94.30
1453;DHT22;720;47.738;7.998;2022-12-17T05:26:23;-5.00;94.70
1453;DHT22;720;47.738;7.998;2022-12-17T05:29:08;-5.00;94.40
1453;DHT22;720;47.738;7.998;2022-12-17T05:31:52;-5.00;94.30
1453;DHT22;720;47.738;7.998;2022-12-17T05:34:36;-5.00;94.50
1453;DHT22;720;47.738;7.998;2022-12-17T05:37:21;-4.90;94.60
1453;DHT22;720;47.738;7.998;2022-12-17T05:40:05;-4.90;94.40
1453;DHT22;720;47.738;7.998;2022-12-17T05:42:58;-4.90;94.40
1453;DHT22;720;47.738;7.998;2022-12-17T05:45:43;-5.00;94.10
1453;DHT22;720;47.738;7.998;2022-12-17T05:48:28;-5.10;94.10
1453;DHT22;720;47.738;7.998;2022-12-17T05:51:13;-5.00;94.00
1453;DHT22;720;47.738;7.998;2022-12-17T05:53:57;-5.00;93.90
1453;DHT22;720;47.738;7.998;2022-12-17T05:56:41;-5.00;93.90
1453;DHT22;720;47.738;7.998;2022-12-17T05:59:25;-5.00;94.40
1453;DHT22;720;47.738;7.998;2022-12-17T06:02:09;-5.00;94.30
1453;DHT22;720;47.738;7.998;2022-12-17T06:05:10;-4.90;94.60
1453;DHT22;720;47.738;7.998;2022-12-17T06:08:05;-4.60;99.90
1453;DHT22;720;47.738;7.998;2022-12-17T06:10:50;-5.00;96.10
1453;DHT22;720;47.738;7.998;2022-12-17T06:13:34;-5.10;93.90
1453;DHT22;720;47.738;7.998;2022-12-17T06:16:19;-5.20;94.10
1453;DHT22;720;47.738;7.998;2022-12-17T06:19:03;-5.10;94.20
1453;DHT22;720;47.738;7.998;2022-12-17T06:21:47;-5.00;94.50
1453;DHT22;720;47.738;7.998;2022-12-17T06:24:31;-4.90;94.60
1453;DHT22;720;47.738;7.998;2022-12-17T06:27:15;-4.90;94.50
1453;DHT22;720;47.738;7.998;2022-12-17T06:29:59;-4.90;94.10
1453;DHT22;720;47.738;7.998;2022-12-17T06:32:43;-5.00;94.10
1453;DHT22;720;47.738;7.998;2022-12-17T06:35:27;-5.10;94.30
1453;DHT22;720;47.738;7.998;2022-12-17T06:38:11;-4.80;99.90
1453;DHT22;720;47.738;7.998;2022-12-17T06:40:59;-4.90;94.40
1453;DHT22;720;47.738;7.998;2022-12-17T06:43:43;-4.80;94.50
1453;DHT22;720;47.738;7.998;2022-12-17T06:46:27;-4.80;94.60
1453;DHT22;720;47.738;7.998;2022-12-17T06:49:11;-4.80;94.50
1453;DHT22;720;47.738;7.998;2022-12-17T06:51:55;-4.90;94.30
1453;DHT22;720;47.738;7.998;2022-12-17T06:54:39;-4.90;94.50
1453;DHT22;720;47.738;7.998;2022-12-17T06:57:23;-4.90;94.50
1453;DHT22;720;47.738;7.998;2022-12-17T07:00:08;-4.90;94.30
1453;DHT22;720;47.738;7.998;2022-12-17T07:02:56;-4.80;94.20
1453;DHT22;720;47.738;7.998;2022-12-17T07:05:40;-4.90;94.10
1453;DHT22;720;47.738;7.998;2022-12-17T07:08:24;-4.90;94.30
1453;DHT22;720;47.738;7.998;2022-12-17T07:11:08;-4.90;94.40
1453;DHT22;720;47.738;7.998;2022-12-17T07:13:53;-4.80;94.70
1453;DHT22;720;47.738;7.998;2022-12-17T07:16:37;-4.70;94.60
1453;DHT22;720;47.738;7.998;2022-12-17T07:19:21;-4.70;94.40
1453;DHT22;720;47.738;7.998;2022-12-17T07:22:04;-4.70;94.40
1453;DHT22;720;47.738;7.998;2022-12-17T07:24:49;-4.70;94.40
1453;DHT22;720;47.738;7.998;2022-12-17T07:27:32;-4.60;94.60
1453;DHT22;720;47.738;7.998;2022-12-17T07:30:17;-4.60;94.80
1453;DHT22;720;47.738;7.998;2022-12-17T07:33:03;-4.70;94.40
1453;DHT22;720;47.738;7.998;2022-12-17T07:35:48;-4.70;94.40
1453;DHT22;720;47.738;7.998;2022-12-17T07:38:32;-4.80;94.50
1453;DHT22;720;47.738;7.998;2022-12-17T07:41:16;-4.70;94.90
1453;DHT22;720;47.738;7.998;2022-12-17T07:44:00;-4.50;95.30
1453;DHT22;720;47.738;7.998;2022-12-17T07:46:44;-4.30;95.20
1453;DHT22;720;47.738;7.998;2022-12-17T07:49:29;-4.30;95.00
1453;DHT22;720;47.738;7.998;2022-12-17T07:52:13;-4.20;95.00
1453;DHT22;720;47.738;7.998;2022-12-17T07:54:57;-4.30;94.50
1453;DHT22;720;47.738;7.998;2022-12-17T07:57:41;-4.30;94.70
1453;DHT22;720;47.738;7.998;2022-12-17T08:00:28;-4.20;94.60
1453;DHT22;720;47.738;7.998;2022-12-17T08:03:12;-4.20;94.50
1453;DHT22;720;47.738;7.998;2022-12-17T08:05:57;-4.30;94.50
1453;DHT22;720;47.738;7.998;2022-12-17T08:08:41;-4.20;94.80
1453;DHT22;720;47.738;7.998;2022-12-17T08:11:26;-4.00;94.90
1453;DHT22;720;47.738;7.998;2022-12-17T08:14:10;-3.70;95.40
1453;DHT22;720;47.738;7.998;2022-12-17T08:16:54;-3.10;96.60
1453;DHT22;720;47.738;7.998;2022-12-17T08:19:38;-2.10;96.00
1453;DHT22;720;47.738;7.998;2022-12-17T08:22:22;-1.30;95.40
1453;DHT22;720;47.738;7.998;2022-12-17T08:25:06;-0.40;95.80
1453;DHT22;720;47.738;7.998;2022-12-17T08:27:55;0.50;93.20
1453;DHT22;720;47.738;7.998;2022-12-17T08:30:40;1.00;90.80
1453;DHT22;720;47.738;7.998;2022-12-17T08:33:24;1.50;90.00
1453;DHT22;720;47.738;7.998;2022-12-17T08:36:09;1.80;88.80
1453;DHT22;720;47.738;7.998;2022-12-17T08:38:57;1.80;84.50
1453;DHT22;720;47.738;7.998;2022-12-17T08:41:41;2.10;86.40
1453;DHT22;720;47.738;7.998;2022-12-17T08:44:25;2.50;88.00
1453;DHT22;720;47.738;7.998;2022-12-17T08:47:10;3.30;86.90
1453;DHT22;720;47.738;7.998;2022-12-17T08:49:54;4.20;85.20
1453;DHT22;720;47.738;7.998;2022-12-17T08:52:38;4.70;83.20
1453;DHT22;720;47.738;7.998;2022-12-17T08:55:22;4.90;79.90
1453;DHT22;720;47.738;7.998;2022-12-17T08:58:07;4.80;77.80
1453;DHT22;720;47.738;7.998;2022-12-17T09:00:51;4.60;80.70
1453;DHT22;720;47.738;7.998;2022-12-17T09:03:35;5.10;78.40
1453;DHT22;720;47.738;7.998;2022-12-17T09:06:19;5.00;77.60
1453;DHT22;720;47.738;7.998;2022-12-17T09:09:03;5.30;77.70
1453;DHT22;720;47.738;7.998;2022-12-17T09:11:48;5.80;75.60
1453;DHT22;720;47.738;7.998;2022-12-17T09:14:31;6.50;72.20
1453;DHT22;720;47.738;7.998;2022-12-17T09:17:16;7.60;71.10
1453;DHT22;720;47.738;7.998;2022-12-17T09:20:00;8.60;66.90
1453;DHT22;720;47.738;7.998;2022-12-17T09:22:44;9.90;63.10
1453;DHT22;720;47.738;7.998;2022-12-17T09:25:28;10.60;58.50
1453;DHT22;720;47.738;7.998;2022-12-17T09:28:12;12.00;56.60
1453;DHT22;720;47.738;7.998;2022-12-17T09:31:00;12.10;53.10
1453;DHT22;720;47.738;7.998;2022-12-17T09:33:44;12.40;51.30
1453;DHT22;720;47.738;7.998;2022-12-17T09:36:29;12.90;49.20
1453;DHT22;720;47.738;7.998;2022-12-17T09:39:13;13.00;46.80
1453;DHT22;720;47.738;7.998;2022-12-17T09:42:06;13.40;46.50
1453;DHT22;720;47.738;7.998;2022-12-17T09:45:11;13.30;42.20
1453;DHT22;720;47.738;7.998;2022-12-17T09:50:53;13.70;44.60
1453;DHT22;720;47.738;7.998;2022-12-17T09:53:46;14.00;42.10
1453;DHT22;720;47.738;7.998;2022-12-17T09:56:32;14.10;40.90
1453;DHT22;720;47.738;7.998;2022-12-17T09:59:25;13.70;43.20
1453;DHT22;720;47.738;7.998;2022-12-17T10:02:16;12.70;42.60
1453;DHT22;720;47.738;7.998;2022-12-17T10:08:00;10.80;45.50
1453;DHT22;720;47.738;7.998;2022-12-17T10:10:47;10.80;45.90
1453;DHT22;720;47.738;7.998;2022-12-17T10:13:31;10.00;47.20
1453;DHT22;720;47.738;7.998;2022-12-17T10:16:32;10.60;47.80
1453;DHT22;720;47.738;7.998;2022-12-17T10:19:37;10.20;44.00
1453;DHT22;720;47.738;7.998;2022-12-17T10:22:23;8.90;47.10
1453;DHT22;720;47.738;7.998;2022-12-17T10:25:19;8.40;50.60
1453;DHT22;720;47.738;7.998;2022-12-17T10:28:12;9.00;51.80
1453;DHT22;720;47.738;7.998;2022-12-17T10:30:56;9.50;49.20
1453;DHT22;720;47.738;7.998;2022-12-17T10:33:41;9.60;49.10
1453;DHT22;720;47.738;7.998;2022-12-17T10:36:27;10.20;46.50
1453;DHT22;720;47.738;7.998;2022-12-17T10:39:24;9.90;46.80
1453;DHT22;720;47.738;7.998;2022-12-17T10:42:38;9.30;46.80
1453;DHT22;720;47.738;7.998;2022-12-17T10:45:25;9.30;47.90
1453;DHT22;720;47.738;7.998;2022-12-17T10:51:13;7.80;47.50
1453;DHT22;720;47.738;7.998;2022-12-17T10:54:08;7.70;47.70
1453;DHT22;720;47.738;7.998;2022-12-17T10:56:54;7.40;48.10
1453;DHT22;720;47.738;7.998;2022-12-17T10:59:39;6.20;50.00
1453;DHT22;720;47.738;7.998;2022-12-17T11:02:28;5.70;50.80
1453;DHT22;720;47.738;7.998;2022-12-17T11:05:19;5.60;51.40
1453;DHT22;720;47.738;7.998;2022-12-17T11:08:06;4.90;58.40
1453;DHT22;720;47.738;7.998;2022-12-17T11:10:51;5.00;54.70
1453;DHT22;720;47.738;7.998;2022-12-17T11:13:44;4.40;54.50
1453;DHT22;720;47.738;7.998;2022-12-17T11:16:33;3.70;58.50
1453;DHT22;720;47.738;7.998;2022-12-17T11:20:07;3.40;59.60
1453;DHT22;720;47.738;7.998;2022-12-17T11:22:57;3.20;58.10
1453;DHT22;720;47.738;7.998;2022-12-17T11:26:06;3.20;59.40
1453;DHT22;720;47.738;7.998;2022-12-17T11:28:51;3.10;62.00
1453;DHT22;720;47.738;7.998;2022-12-17T11:38:35;2.60;61.60
1453;DHT22;720;47.738;7.998;2022-12-17T11:56:48;1.30;68.80
1453;DHT22;720;47.738;7.998;2022-12-17T12:05:39;1.20;70.30
1453;DHT22;720;47.738;7.998;2022-12-17T12:11:58;1.10;71.60
1453;DHT22;720;47.738;7.998;2022-12-17T12:18:15;1.10;80.50
1453;DHT22;720;47.738;7.998;2022-12-17T12:26:58;0.90;72.90
1453;DHT22;720;47.738;7.998;2022-12-17T12:35:52;0.60;74.60
1453;DHT22;720;47.738;7.998;2022-12-17T12:38:42;0.70;75.00
1453;DHT22;720;47.738;7.998;2022-12-17T12:44:57;0.80;76.00
1453;DHT22;720;47.738;7.998;2022-12-17T12:48:01;0.70;76.20
1453;DHT22;720;47.738;7.998;2022-12-17T12:51:25;0.80;76.80
1453;DHT22;720;47.738;7.998;2022-12-17T12:54:23;0.80;77.70
1453;DHT22;720;47.738;7.998;2022-12-17T12:57:27;0.80;77.30
1453;DHT22;720;47.738;7.998;2022-12-17T13:00:25;0.80;77.10
1453;DHT22;720;47.738;7.998;2022-12-17T13:03:29;0.80;77.80
1453;DHT22;720;47.738;7.998;2022-12-17T13:11:43;0.60;77.80
1453;DHT22;720;47.738;7.998;2022-12-17T13:14:22;0.60;77.30
1453;DHT22;720;47.738;7.998;2022-12-17T13:17:04;0.60;76.70
1453;DHT22;720;47.738;7.998;2022-12-17T13:19:34;0.60;75.90
1453;DHT22;720;47.738;7.998;2022-12-17T13:24:49;0.50;76.70
1453;DHT22;720;47.738;7.998;2022-12-17T13:27:35;0.40;75.90
1453;DHT22;720;47.738;7.998;2022-12-17T13:38:49;0.30;77.80
1453;DHT22;720;47.738;7.998;2022-12-17T13:41:20;0.30;77.90
1453;DHT22;720;47.738;7.998;2022-12-17T13:43:57;0.30;77.80
1453;DHT22;720;47.738;7.998;2022-12-17T13:46:33;0.30;78.80
1453;DHT22;720;47.738;7.998;2022-12-17T13:49:01;0.40;79.10
1453;DHT22;720;47.738;7.998;2022-12-17T13:51:29;0.10;78.70
1453;DHT22;720;47.738;7.998;2022-12-17T13:54:01;-0.30;80.30
1453;DHT22;720;47.738;7.998;2022-12-17T13:56:35;-0.40;82.20
1453;DHT22;720;47.738;7.998;2022-12-17T13:59:03;-0.70;82.10
1453;DHT22;720;47.738;7.998;2022-12-17T14:01:31;-0.60;81.80
1453;DHT22;720;47.738;7.998;2022-12-17T14:04:00;-0.60;82.30
1453;DHT22;720;47.738;7.998;2022-12-17T14:06:33;-0.70;83.40
1453;DHT22;720;47.738;7.998;2022-12-17T14:09:00;-0.60;84.10
1453;DHT22;720;47.738;7.998;2022-12-17T14:11:26;-0.50;84.70
1453;DHT22;720;47.738;7.998;2022-12-17T14:14:27;-0.40;84.80
1453;DHT22;720;47.738;7.998;2022-12-17T14:16:54;-0.30;85.80
1453;DHT22;720;47.738;7.998;2022-12-17T14:19:21;-0.20;84.90
1453;DHT22;720;47.738;7.998;2022-12-17T14:21:47;-0.20;83.10
1453;DHT22;720;47.738;7.998;2022-12-17T14:24:13;-0.10;83.30
1453;DHT22;720;47.738;7.998;2022-12-17T14:26:49;0.00;83.30
1453;DHT22;720;47.738;7.998;2022-12-17T14:29:21;0.00;82.30
1453;DHT22;720;47.738;7.998;2022-12-17T14:31:55;-0.30;83.40
1453;DHT22;720;47.738;7.998;2022-12-17T14:34:22;-0.30;84.30
1453;DHT22;720;47.738;7.998;2022-12-17T14:36:59;-0.20;84.30
1453;DHT22;720;47.738;7.998;2022-12-17T14:39:30;-0.20;83.80
1453;DHT22;720;47.738;7.998;2022-12-17T14:42:06;-0.20;84.10
1453;DHT22;720;47.738;7.998;2022-12-17T14:45:00;-0.30;85.00
1453;DHT22;720;47.738;7.998;2022-12-17T14:47:32;-0.30;85.60
1453;DHT22;720;47.738;7.998;2022-12-17T14:52:46;-0.30;86.30
1453;DHT22;720;47.738;7.998;2022-12-17T14:57:50;-0.30;86.80
1453;DHT22;720;47.738;7.998;2022-12-17T15:00:17;-0.30;87.30
1453;DHT22;720;47.738;7.998;2022-12-17T15:02:43;-0.50;87.70
1453;DHT22;720;47.738;7.998;2022-12-17T15:05:14;-0.60;88.50
1453;DHT22;720;47.738;7.998;2022-12-17T15:07:40;-0.50;89.40
1453;DHT22;720;47.738;7.998;2022-12-17T15:10:12;-0.60;89.60
1453;DHT22;720;47.738;7.998;2022-12-17T15:12:40;-0.80;90.20
1453;DHT22;720;47.738;7.998;2022-12-17T15:15:07;-0.80;90.50
1453;DHT22;720;47.738;7.998;2022-12-17T15:17:32;-0.80;91.00
1453;DHT22;720;47.738;7.998;2022-12-17T15:19:58;-0.80;91.60
1453;DHT22;720;47.738;7.998;2022-12-17T15:22:23;-0.90;92.00
1453;DHT22;720;47.738;7.998;2022-12-17T15:24:50;-1.10;92.50
1453;DHT22;720;47.738;7.998;2022-12-17T15:27:16;-1.20;92.90
1453;DHT22;720;47.738;7.998;2022-12-17T15:29:44;-1.30;93.20
1453;DHT22;720;47.738;7.998;2022-12-17T15:32:21;-1.40;93.20
1453;DHT22;720;47.738;7.998;2022-12-17T15:34:48;-1.40;93.30
1453;DHT22;720;47.738;7.998;2022-12-17T15:37:15;-1.60;93.30
1453;DHT22;720;47.738;7.998;2022-12-17T15:39:40;-1.60;93.60
1453;DHT22;720;47.738;7.998;2022-12-17T15:42:07;-1.60;93.80
1453;DHT22;720;47.738;7.998;2022-12-17T15:44:51;-1.70;94.00
1453;DHT22;720;47.738;7.998;2022-12-17T15:47:17;-1.70;94.20
1453;DHT22;720;47.738;7.998;2022-12-17T15:49:43;-1.60;94.30
1453;DHT22;720;47.738;7.998;2022-12-17T15:52:09;-1.60;94.10
1453;DHT22;720;47.738;7.998;2022-12-17T15:54:35;-1.60;94.10
1453;DHT22;720;47.738;7.998;2022-12-17T15:57:00;-1.50;94.00
1453;DHT22;720;47.738;7.998;2022-12-17T15:59:26;-1.50;94.10
1453;DHT22;720;47.738;7.998;2022-12-17T16:01:52;-1.50;94.10
1453;DHT22;720;47.738;7.998;2022-12-17T16:04:17;-1.50;94.00
1453;DHT22;720;47.738;7.998;2022-12-17T16:06:43;-1.60;94.00
1453;DHT22;720;47.738;7.998;2022-12-17T16:09:08;-1.60;94.20
1453;DHT22;720;47.738;7.998;2022-12-17T16:11:34;-1.60;94.10
1453;DHT22;720;47.738;7.998;2022-12-17T16:14:00;-1.70;94.10
1453;DHT22;720;47.738;7.998;2022-12-17T16:16:25;-1.70;94.00
1453;DHT22;720;47.738;7.998;2022-12-17T16:18:51;-1.80;93.80
1453;DHT22;720;47.738;7.998;2022-12-17T16:21:17;-1.80;93.40
1453;DHT22;720;47.738;7.998;2022-12-17T16:23:42;-1.80;93.40
1453;DHT22;720;47.738;7.998;2022-12-17T16:26:10;-1.90;93.40
1453;DHT22;720;47.738;7.998;2022-12-17T16:28:36;-2.00;93.50
1453;DHT22;720;47.738;7.998;2022-12-17T16:31:07;-2.20;93.60
1453;DHT22;720;47.738;7.998;2022-12-17T16:33:35;-2.30;94.00
1453;DHT22;720;47.738;7.998;2022-12-17T16:36:02;-2.20;94.40
1453;DHT22;720;47.738;7.998;2022-12-17T16:38:27;-2.20;94.10
1453;DHT22;720;47.738;7.998;2022-12-17T16:40:57;-2.30;93.90
1453;DHT22;720;47.738;7.998;2022-12-17T16:43:24;-2.30;93.80
1453;DHT22;720;47.738;7.998;2022-12-17T16:45:51;-2.50;93.90
1453;DHT22;720;47.738;7.998;2022-12-17T16:48:18;-2.50;93.80
1453;DHT22;720;47.738;7.998;2022-12-17T16:50:45;-2.60;94.00
1453;DHT22;720;47.738;7.998;2022-12-17T16:53:11;-2.60;94.10
1453;DHT22;720;47.738;7.998;2022-12-17T16:55:43;-2.70;93.90
1453;DHT22;720;47.738;7.998;2022-12-17T16:58:10;-2.70;96.70
1453;DHT22;720;47.738;7.998;2022-12-17T17:00:35;-2.70;94.20
1453;DHT22;720;47.738;7.998;2022-12-17T17:03:02;-2.80;94.20
1453;DHT22;720;47.738;7.998;2022-12-17T17:05:34;-2.90;94.20
1453;DHT22;720;47.738;7.998;2022-12-17T17:08:00;-2.90;94.60
1453;DHT22;720;47.738;7.998;2022-12-17T17:10:26;-3.00;94.40
1453;DHT22;720;47.738;7.998;2022-12-17T17:12:53;-3.00;94.60
1453;DHT22;720;47.738;7.998;2022-12-17T17:15:19;-3.10;94.60
1453;DHT22;720;47.738;7.998;2022-12-17T17:17:44;-3.10;94.60
1453;DHT22;720;47.738;7.998;2022-12-17T17:20:10;-3.10;94.60
1453;DHT22;720;47.738;7.998;2022-12-17T17:22:36;-3.10;94.30
1453;DHT22;720;47.738;7.998;2022-12-17T17:25:02;-3.10;94.30
1453;DHT22;720;47.738;7.998;2022-12-17T17:27:28;-3.20;94.30
1453;DHT22;720;47.738;7.998;2022-12-17T17:29:54;-3.20;94.30
1453;DHT22;720;47.738;7.998;2022-12-17T17:32:21;-3.30;94.60
1453;DHT22;720;47.738;7.998;2022-12-17T17:34:46;-3.20;94.50
1453;DHT22;720;47.738;7.998;2022-12-17T17:37:12;-3.30;94.30
1453;DHT22;720;47.738;7.998;2022-12-17T17:39:38;-3.30;94.60
1453;DHT22;720;47.738;7.998;2022-12-17T17:42:04;-3.20;94.80
1453;DHT22;720;47.738;7.998;2022-12-17T17:44:29;-3.20;94.60
1453;DHT22;720;47.738;7.998;2022-12-17T17:46:55;-3.00;94.70
1453;DHT22;720;47.738;7.998;2022-12-17T17:49:21;-3.00;94.20
1453;DHT22;720;47.738;7.998;2022-12-17T17:51:46;-3.20;93.90
1453;DHT22;720;47.738;7.998;2022-12-17T17:54:12;-3.20;94.00
1453;DHT22;720;47.738;7.998;2022-12-17T17:56:39;-3.20;94.30
1453;DHT22;720;47.738;7.998;2022-12-17T17:59:16;-3.20;94.30
1453;DHT22;720;47.738;7.998;2022-12-17T18:01:48;-3.10;94.10
1453;DHT22;720;47.738;7.998;2022-12-17T18:04:17;-2.90;94.10
1453;DHT22;720;47.738;7.998;2022-12-17T18:06:45;-2.80;94.30
1453;DHT22;720;47.738;7.998;2022-12-17T18:09:12;-2.80;94.40
1453;DHT22;720;47.738;7.998;2022-12-17T18:11:39;-2.70;94.30
1453;DHT22;720;47.738;7.998;2022-12-17T18:14:07;-2.70;94.20
1453;DHT22;720;47.738;7.998;2022-12-17T18:16:45;-2.60;94.30
1453;DHT22;720;47.738;7.998;2022-12-17T18:19:12;-2.60;94.30
1453;DHT22;720;47.738;7.998;2022-12-17T18:21:38;-2.50;94.30
1453;DHT22;720;47.738;7.998;2022-12-17T18:26:34;-2.60;94.40
1453;DHT22;720;47.738;7.998;2022-12-17T18:29:06;-2.60;94.60
1453;DHT22;720;47.738;7.998;2022-12-17T18:31:32;-2.50;94.80
1453;DHT22;720;47.738;7.998;2022-12-17T18:34:00;-2.50;94.60
1453;DHT22;720;47.738;7.998;2022-12-17T18:36:28;-2.60;94.50
1453;DHT22;720;47.738;7.998;2022-12-17T18:38:58;-2.60;94.30
1453;DHT22;720;47.738;7.998;2022-12-17T18:41:24;-2.60;93.80
1453;DHT22;720;47.738;7.998;2022-12-17T18:44:08;-2.60;93.80
1453;DHT22;720;47.738;7.998;2022-12-17T18:46:34;-2.70;94.20
1453;DHT22;720;47.738;7.998;2022-12-17T18:49:03;-2.60;94.60
1453;DHT22;720;47.738;7.998;2022-12-17T18:51:29;-2.60;94.30
1453;DHT22;720;47.738;7.998;2022-12-17T18:53:56;-2.60;94.20
1453;DHT22;720;47.738;7.998;2022-12-17T18:56:22;-2.60;94.50
1453;DHT22;720;47.738;7.998;2022-12-17T18:58:50;-2.60;94.60
1453;DHT22;720;47.738;7.998;2022-12-17T19:01:27;-2.60;95.10
1453;DHT22;720;47.738;7.998;2022-12-17T19:03:53;-2.60;95.30
1453;DHT22;720;47.738;7.998;2022-12-17T19:06:20;-2.60;95.40
1453;DHT22;720;47.738;7.998;2022-12-17T19:08:46;-2.60;95.40
1453;DHT22;720;47.738;7.998;2022-12-17T19:11:14;-2.60;95.60
1453;DHT22;720;47.738;7.998;2022-12-17T19:13:40;-2.60;95.30
1453;DHT22;720;47.738;7.998;2022-12-17T19:18:35;-2.50;95.50
1453;DHT22;720;47.738;7.998;2022-12-17T19:21:01;-2.50;95.50